sensor_id;sensor_type;location;lat;lon;timestamp;pressure;altitude;pressure_sealevel;temperature;humidity
29247;BME280;16272;48.188;9.964;2023-04-21T00:01:02;95419.09;;;6.78;78.15
29247;BME280;16272;48.188;9.964;2023-04-21T00:03:28;95412.72;;;6.71;79.35
29247;BME280;16272;48.188;9.964;2023-04-21T00:05:57;95417.16;;;6.61;79.76
29247;BME280;16272;48.188;9.964;2023-04-21T00:08:23;95421.56;;;6.51;79.91
29247;BME280;16272;48.188;9.964;2023-04-21T00:10:58;95428.78;;;6.49;80.41
29247;BME280;16272;48.188;9.964;2023-04-21T00:13:23;95420.97;;;6.37;81.63
29247;BME280;16272;48.188;9.964;2023-04-21T00:15:49;95424.34;;;6.59;80.45
29247;BME280;16272;48.188;9.964;2023-04-21T00:18:17;95424.38;;;6.78;79.36
29247;BME280;16272;48.188;9.964;2023-04-21T00:20:42;95422.16;;;6.64;79.72
29247;BME280;16272;48.188;9.964;2023-04-21T00:23:15;95414.53;;;6.11;82.63
29247;BME280;16272;48.188;9.964;2023-04-21T00:36:09;95410.88;;;5.50;86.08
29247;BME280;16272;48.188;9.964;2023-04-21T00:47:46;95391.16;;;6.37;81.20
29247;BME280;16272;48.188;9.964;2023-04-21T00:50:12;95388.22;;;6.30;81.30
29247;BME280;16272;48.188;9.964;2023-04-21T00:52:43;95382.97;;;6.50;80.88
29247;BME280;16272;48.188;9.964;2023-04-21T00:55:11;95379.06;;;6.54;80.13
29247;BME280;16272;48.188;9.964;2023-04-21T00:57:36;95372.84;;;6.65;79.58
29247;BME280;16272;48.188;9.964;2023-04-21T01:00:03;95361.00;;;6.49;79.64
29247;BME280;16272;48.188;9.964;2023-04-21T01:02:30;95364.53;;;6.59;79.63
29247;BME280;16272;48.188;9.964;2023-04-21T01:04:56;95349.38;;;6.71;78.57
29247;BME280;16272;48.188;9.964;2023-04-21T01:07:24;95353.56;;;6.64;78.47
29247;BME280;16272;48.188;9.964;2023-04-21T01:09:49;95347.13;;;6.37;79.21
29247;BME280;16272;48.188;9.964;2023-04-21T01:12:15;95358.66;;;6.36;79.88
29247;BME280;16272;48.188;9.964;2023-04-21T01:14:40;95358.25;;;6.51;78.91
29247;BME280;16272;48.188;9.964;2023-04-21T01:17:06;95345.34;;;6.57;78.32
29247;BME280;16272;48.188;9.964;2023-04-21T01:19:34;95361.59;;;6.43;78.87
29247;BME280;16272;48.188;9.964;2023-04-21T01:22:03;95350.31;;;6.51;79.24
29247;BME280;16272;48.188;9.964;2023-04-21T01:24:40;95345.47;;;6.36;79.64
29247;BME280;16272;48.188;9.964;2023-04-21T01:27:16;95333.81;;;6.49;78.52
29247;BME280;16272;48.188;9.964;2023-04-21T01:29:44;95337.56;;;6.46;78.29
29247;BME280;16272;48.188;9.964;2023-04-21T01:32:21;95330.84;;;6.13;79.92
29247;BME280;16272;48.188;9.964;2023-04-21T01:34:47;95328.09;;;6.34;79.02
29247;BME280;16272;48.188;9.964;2023-04-21T01:37:19;95327.38;;;6.12;79.11
29247;BME280;16272;48.188;9.964;2023-04-21T01:39:53;95322.13;;;6.12;79.96
29247;BME280;16272;48.188;9.964;2023-04-21T01:42:20;95318.66;;;6.12;78.79
29247;BME280;16272;48.188;9.964;2023-04-21T01:44:45;95317.84;;;5.90;78.89
29247;BME280;16272;48.188;9.964;2023-04-21T01:47:12;95325.25;;;5.65;80.53
29247;BME280;16272;48.188;9.964;2023-04-21T01:49:38;95336.69;;;5.14;82.66
29247;BME280;16272;48.188;9.964;2023-04-21T01:52:04;95334.56;;;5.08;81.13
29247;BME280;16272;48.188;9.964;2023-04-21T01:54:30;95343.56;;;5.05;80.79
29247;BME280;16272;48.188;9.964;2023-04-21T01:56:55;95346.63;;;4.89;82.67
29247;BME280;16272;48.188;9.964;2023-04-21T01:59:22;95349.06;;;5.02;83.26
29247;BME280;16272;48.188;9.964;2023-04-21T02:01:52;95342.56;;;5.06;83.12
29247;BME280;16272;48.188;9.964;2023-04-21T02:04:18;95335.66;;;5.36;83.14
29247;BME280;16272;48.188;9.964;2023-04-21T02:06:43;95327.22;;;5.63;81.75
29247;BME280;16272;48.188;9.964;2023-04-21T02:09:10;95326.84;;;5.78;81.48
29247;BME280;16272;48.188;9.964;2023-04-21T02:11:36;95337.84;;;5.93;80.29
29247;BME280;16272;48.188;9.964;2023-04-21T02:14:01;95348.97;;;5.96;79.37
29247;BME280;16272;48.188;9.964;2023-04-21T02:16:27;95349.84;;;6.06;79.41
29247;BME280;16272;48.188;9.964;2023-04-21T02:18:53;95353.28;;;5.66;80.74
29247;BME280;16272;48.188;9.964;2023-04-21T02:21:20;95348.59;;;5.39;81.81
29247;BME280;16272;48.188;9.964;2023-04-21T02:23:45;95355.09;;;5.35;82.06
29247;BME280;16272;48.188;9.964;2023-04-21T02:26:11;95349.69;;;5.37;82.74
29247;BME280;16272;48.188;9.964;2023-04-21T02:28:36;95355.34;;;5.32;82.33
29247;BME280;16272;48.188;9.964;2023-04-21T02:31:01;95344.50;;;4.83;84.04
29247;BME280;16272;48.188;9.964;2023-04-21T02:33:27;95352.47;;;5.14;84.05
29247;BME280;16272;48.188;9.964;2023-04-21T02:35:52;95342.94;;;5.44;82.31
29247;BME280;16272;48.188;9.964;2023-04-21T02:38:18;95344.06;;;4.99;83.23
29247;BME280;16272;48.188;9.964;2023-04-21T02:40:43;95342.75;;;5.14;83.65
29247;BME280;16272;48.188;9.964;2023-04-21T02:43:08;95330.06;;;5.50;81.01
29247;BME280;16272;48.188;9.964;2023-04-21T02:45:35;95328.94;;;5.43;80.19
29247;BME280;16272;48.188;9.964;2023-04-21T02:48:01;95326.88;;;5.47;80.04
29247;BME280;16272;48.188;9.964;2023-04-21T02:50:26;95342.88;;;5.34;80.58
29247;BME280;16272;48.188;9.964;2023-04-21T02:52:51;95329.59;;;5.36;80.14
29247;BME280;16272;48.188;9.964;2023-04-21T02:55:17;95335.66;;;5.36;79.96
29247;BME280;16272;48.188;9.964;2023-04-21T02:57:42;95321.00;;;5.33;79.36
29247;BME280;16272;48.188;9.964;2023-04-21T03:00:14;95327.13;;;5.44;79.17
29247;BME280;16272;48.188;9.964;2023-04-21T03:02:39;95339.09;;;5.48;78.16
29247;BME280;16272;48.188;9.964;2023-04-21T03:05:05;95335.16;;;5.42;78.92
29247;BME280;16272;48.188;9.964;2023-04-21T03:07:31;95319.56;;;5.29;79.84
29247;BME280;16272;48.188;9.964;2023-04-21T03:10:00;95328.53;;;5.48;78.55
29247;BME280;16272;48.188;9.964;2023-04-21T03:12:26;95336.06;;;5.62;78.69
29247;BME280;16272;48.188;9.964;2023-04-21T03:14:51;95324.63;;;5.42;78.87
29247;BME280;16272;48.188;9.964;2023-04-21T03:17:16;95334.34;;;5.42;78.58
29247;BME280;16272;48.188;9.964;2023-04-21T03:19:42;95324.94;;;5.49;78.76
29247;BME280;16272;48.188;9.964;2023-04-21T03:22:07;95326.31;;;5.43;79.14
29247;BME280;16272;48.188;9.964;2023-04-21T03:24:32;95316.25;;;5.58;78.70
29247;BME280;16272;48.188;9.964;2023-04-21T03:26:57;95323.59;;;5.55;78.50
29247;BME280;16272;48.188;9.964;2023-04-21T03:29:46;95329.16;;;5.61;78.35
29247;BME280;16272;48.188;9.964;2023-04-21T03:32:11;95330.44;;;5.46;78.67
29247;BME280;16272;48.188;9.964;2023-04-21T03:34:36;95346.88;;;4.86;81.84
29247;BME280;16272;48.188;9.964;2023-04-21T03:37:01;95342.44;;;5.08;81.82
29247;BME280;16272;48.188;9.964;2023-04-21T03:39:27;95355.03;;;5.04;81.74
29247;BME280;16272;48.188;9.964;2023-04-21T03:41:52;95354.00;;;4.74;83.23
29247;BME280;16272;48.188;9.964;2023-04-21T03:44:17;95345.41;;;4.93;82.53
29247;BME280;16272;48.188;9.964;2023-04-21T03:46:42;95344.81;;;4.90;82.52
29247;BME280;16272;48.188;9.964;2023-04-21T03:49:08;95337.06;;;4.88;83.41
29247;BME280;16272;48.188;9.964;2023-04-21T03:51:45;95333.31;;;4.49;86.21
29247;BME280;16272;48.188;9.964;2023-04-21T03:54:11;95334.59;;;4.22;87.06
29247;BME280;16272;48.188;9.964;2023-04-21T03:56:36;95338.09;;;4.11;88.84
29247;BME280;16272;48.188;9.964;2023-04-21T03:59:02;95329.00;;;4.15;88.96
29247;BME280;16272;48.188;9.964;2023-04-21T04:01:27;95325.53;;;4.15;89.07
29247;BME280;16272;48.188;9.964;2023-04-21T04:03:54;95333.34;;;4.05;90.47
29247;BME280;16272;48.188;9.964;2023-04-21T04:06:20;95340.63;;;4.45;88.78
29247;BME280;16272;48.188;9.964;2023-04-21T04:08:45;95343.53;;;4.63;86.39
29247;BME280;16272;48.188;9.964;2023-04-21T04:11:10;95357.38;;;4.33;87.75
29247;BME280;16272;48.188;9.964;2023-04-21T04:13:35;95360.91;;;4.54;86.57
29247;BME280;16272;48.188;9.964;2023-04-21T04:16:01;95345.16;;;4.96;84.71
29247;BME280;16272;48.188;9.964;2023-04-21T04:18:26;95355.41;;;5.21;83.28
29247;BME280;16272;48.188;9.964;2023-04-21T04:20:51;95353.09;;;5.27;81.85
29247;BME280;16272;48.188;9.964;2023-04-21T04:23:17;95381.84;;;4.77;83.18
29247;BME280;16272;48.188;9.964;2023-04-21T04:25:42;95384.25;;;4.69;84.74
29247;BME280;16272;48.188;9.964;2023-04-21T04:28:07;95383.53;;;4.78;84.22
29247;BME280;16272;48.188;9.964;2023-04-21T04:30:33;95389.34;;;4.82;84.21
29247;BME280;16272;48.188;9.964;2023-04-21T04:32:59;95393.78;;;4.81;83.60
29247;BME280;16272;48.188;9.964;2023-04-21T04:35:25;95387.31;;;5.27;82.60
29247;BME280;16272;48.188;9.964;2023-04-21T04:37:50;95387.91;;;5.10;82.67
29247;BME280;16272;48.188;9.964;2023-04-21T04:40:16;95392.75;;;4.93;83.23
29247;BME280;16272;48.188;9.964;2023-04-21T04:42:41;95391.75;;;4.85;83.56
29247;BME280;16272;48.188;9.964;2023-04-21T04:45:07;95382.63;;;5.10;82.48
29247;BME280;16272;48.188;9.964;2023-04-21T04:47:34;95377.53;;;5.08;82.21
29247;BME280;16272;48.188;9.964;2023-04-21T04:49:59;95390.84;;;5.38;81.32
29247;BME280;16272;48.188;9.964;2023-04-21T04:52:24;95379.75;;;5.34;80.59
29247;BME280;16272;48.188;9.964;2023-04-21T04:54:52;95384.19;;;5.33;79.91
29247;BME280;16272;48.188;9.964;2023-04-21T04:57:17;95394.94;;;4.88;82.25
29247;BME280;16272;48.188;9.964;2023-04-21T04:59:43;95400.78;;;4.71;84.17
29247;BME280;16272;48.188;9.964;2023-04-21T05:02:08;95408.16;;;4.77;84.44
29247;BME280;16272;48.188;9.964;2023-04-21T05:04:34;95410.75;;;4.88;83.48
29247;BME280;16272;48.188;9.964;2023-04-21T05:07:00;95402.63;;;5.12;82.55
29247;BME280;16272;48.188;9.964;2023-04-21T05:09:25;95408.91;;;5.42;81.51
29247;BME280;16272;48.188;9.964;2023-04-21T05:11:50;95402.56;;;5.45;81.25
29247;BME280;16272;48.188;9.964;2023-04-21T05:14:16;95405.50;;;5.30;81.72
29247;BME280;16272;48.188;9.964;2023-04-21T05:16:46;95409.81;;;5.10;82.84
29247;BME280;16272;48.188;9.964;2023-04-21T05:19:12;95407.19;;;5.31;82.69
29247;BME280;16272;48.188;9.964;2023-04-21T05:21:37;95404.88;;;5.38;80.99
29247;BME280;16272;48.188;9.964;2023-04-21T05:24:03;95406.00;;;5.45;80.63
29247;BME280;16272;48.188;9.964;2023-04-21T05:26:28;95401.91;;;5.31;81.72
29247;BME280;16272;48.188;9.964;2023-04-21T05:28:55;95400.03;;;5.43;81.21
29247;BME280;16272;48.188;9.964;2023-04-21T05:31:21;95395.66;;;5.11;82.52
29247;BME280;16272;48.188;9.964;2023-04-21T05:33:49;95397.47;;;5.32;81.96
29247;BME280;16272;48.188;9.964;2023-04-21T05:36:15;95386.28;;;5.61;81.22
29247;BME280;16272;48.188;9.964;2023-04-21T05:38:40;95389.59;;;5.32;82.09
29247;BME280;16272;48.188;9.964;2023-04-21T05:41:06;95389.13;;;5.48;82.35
29247;BME280;16272;48.188;9.964;2023-04-21T05:43:31;95393.94;;;5.43;81.76
29247;BME280;16272;48.188;9.964;2023-04-21T05:46:07;95380.97;;;5.51;81.83
29247;BME280;16272;48.188;9.964;2023-04-21T05:48:33;95378.13;;;5.74;81.63
29247;BME280;16272;48.188;9.964;2023-04-21T05:51:18;95385.88;;;5.44;82.24
29247;BME280;16272;48.188;9.964;2023-04-21T05:53:50;95377.53;;;5.60;82.13
29247;BME280;16272;48.188;9.964;2023-04-21T05:56:16;95377.97;;;5.65;81.53
29247;BME280;16272;48.188;9.964;2023-04-21T05:58:41;95375.94;;;6.10;80.26
29247;BME280;16272;48.188;9.964;2023-04-21T06:01:07;95367.03;;;6.01;80.19
29247;BME280;16272;48.188;9.964;2023-04-21T06:03:33;95363.50;;;5.91;80.74
29247;BME280;16272;48.188;9.964;2023-04-21T06:05:59;95360.03;;;5.90;80.88
29247;BME280;16272;48.188;9.964;2023-04-21T06:08:25;95356.13;;;5.84;80.58
29247;BME280;16272;48.188;9.964;2023-04-21T06:10:51;95355.66;;;6.00;80.63
29247;BME280;16272;48.188;9.964;2023-04-21T06:13:22;95351.22;;;6.01;81.28
29247;BME280;16272;48.188;9.964;2023-04-21T06:15:47;95358.25;;;6.51;80.15
29247;BME280;16272;48.188;9.964;2023-04-21T06:18:13;95348.56;;;6.80;78.78
29247;BME280;16272;48.188;9.964;2023-04-21T06:20:38;95337.13;;;6.90;78.77
29247;BME280;16272;48.188;9.964;2023-04-21T06:23:05;95342.28;;;7.01;78.02
29247;BME280;16272;48.188;9.964;2023-04-21T06:25:30;95341.00;;;7.25;78.32
29247;BME280;16272;48.188;9.964;2023-04-21T06:27:55;95350.16;;;7.30;77.39
29247;BME280;16272;48.188;9.964;2023-04-21T06:30:21;95349.47;;;7.18;78.43
29247;BME280;16272;48.188;9.964;2023-04-21T06:32:46;95349.31;;;7.30;77.78
29247;BME280;16272;48.188;9.964;2023-04-21T06:35:13;95356.50;;;7.38;78.47
29247;BME280;16272;48.188;9.964;2023-04-21T06:37:40;95350.41;;;7.37;78.12
29247;BME280;16272;48.188;9.964;2023-04-21T06:40:06;95357.25;;;7.30;78.63
29247;BME280;16272;48.188;9.964;2023-04-21T06:42:31;95346.09;;;7.36;77.80
29247;BME280;16272;48.188;9.964;2023-04-21T06:44:56;95350.47;;;6.30;81.46
29247;BME280;16272;48.188;9.964;2023-04-21T06:47:24;95350.00;;;6.24;82.28
29247;BME280;16272;48.188;9.964;2023-04-21T06:49:50;95350.28;;;6.21;82.76
29247;BME280;16272;48.188;9.964;2023-04-21T06:52:16;95352.38;;;6.18;82.51
29247;BME280;16272;48.188;9.964;2023-04-21T06:54:41;95352.56;;;6.85;80.69
29247;BME280;16272;48.188;9.964;2023-04-21T06:57:06;95345.91;;;6.61;80.90
29247;BME280;16272;48.188;9.964;2023-04-21T06:59:32;95345.47;;;6.95;79.75
29247;BME280;16272;48.188;9.964;2023-04-21T07:01:59;95342.81;;;7.14;79.94
29247;BME280;16272;48.188;9.964;2023-04-21T07:04:25;95346.47;;;6.74;81.16
29247;BME280;16272;48.188;9.964;2023-04-21T07:06:58;95332.66;;;7.20;80.34
29247;BME280;16272;48.188;9.964;2023-04-21T07:09:23;95330.91;;;7.58;78.13
29247;BME280;16272;48.188;9.964;2023-04-21T07:11:58;95319.22;;;7.50;78.26
29247;BME280;16272;48.188;9.964;2023-04-21T07:14:24;95327.13;;;6.84;81.02
29247;BME280;16272;48.188;9.964;2023-04-21T07:16:49;95327.53;;;7.08;80.36
29247;BME280;16272;48.188;9.964;2023-04-21T07:19:14;95330.50;;;6.76;80.79
29247;BME280;16272;48.188;9.964;2023-04-21T07:21:40;95336.72;;;6.65;82.33
29247;BME280;16272;48.188;9.964;2023-04-21T07:24:05;95336.16;;;7.10;81.26
29247;BME280;16272;48.188;9.964;2023-04-21T07:26:31;95339.09;;;6.68;82.19
29247;BME280;16272;48.188;9.964;2023-04-21T07:28:56;95336.88;;;6.63;84.15
29247;BME280;16272;48.188;9.964;2023-04-21T07:31:23;95342.41;;;6.51;83.84
29247;BME280;16272;48.188;9.964;2023-04-21T07:33:49;95336.56;;;7.15;81.67
29247;BME280;16272;48.188;9.964;2023-04-21T07:36:14;95338.97;;;7.56;81.78
29247;BME280;16272;48.188;9.964;2023-04-21T07:38:40;95336.78;;;7.42;79.66
29247;BME280;16272;48.188;9.964;2023-04-21T07:41:10;95324.06;;;7.93;78.91
29247;BME280;16272;48.188;9.964;2023-04-21T07:43:37;95319.25;;;8.70;78.26
29247;BME280;16272;48.188;9.964;2023-04-21T07:46:12;95325.53;;;8.69;75.72
29247;BME280;16272;48.188;9.964;2023-04-21T07:48:39;95326.81;;;8.46;78.92
29247;BME280;16272;48.188;9.964;2023-04-21T07:51:10;95317.44;;;8.88;79.06
29247;BME280;16272;48.188;9.964;2023-04-21T07:53:35;95331.47;;;8.62;79.20
29247;BME280;16272;48.188;9.964;2023-04-21T07:56:04;95330.34;;;8.09;82.37
29247;BME280;16272;48.188;9.964;2023-04-21T07:58:31;95325.78;;;8.29;80.24
29247;BME280;16272;48.188;9.964;2023-04-21T08:00:56;95322.81;;;8.60;82.56
29247;BME280;16272;48.188;9.964;2023-04-21T08:03:22;95317.66;;;8.77;80.14
29247;BME280;16272;48.188;9.964;2023-04-21T08:05:47;95310.88;;;9.18;80.19
29247;BME280;16272;48.188;9.964;2023-04-21T08:08:20;95313.75;;;8.81;81.55
29247;BME280;16272;48.188;9.964;2023-04-21T08:10:46;95310.78;;;9.02;80.86
29247;BME280;16272;48.188;9.964;2023-04-21T08:13:12;95304.00;;;9.60;76.10
29247;BME280;16272;48.188;9.964;2023-04-21T08:15:37;95304.50;;;10.49;75.86
29247;BME280;16272;48.188;9.964;2023-04-21T08:18:03;95307.66;;;10.02;75.94
29247;BME280;16272;48.188;9.964;2023-04-21T08:20:28;95296.69;;;10.47;76.41
29247;BME280;16272;48.188;9.964;2023-04-21T08:22:54;95305.69;;;11.45;72.72
29247;BME280;16272;48.188;9.964;2023-04-21T08:25:19;95318.13;;;10.03;77.41
29247;BME280;16272;48.188;9.964;2023-04-21T08:27:44;95313.66;;;10.55;75.39
29247;BME280;16272;48.188;9.964;2023-04-21T08:30:10;95321.16;;;10.17;78.02
29247;BME280;16272;48.188;9.964;2023-04-21T08:32:36;95314.41;;;9.88;77.47
29247;BME280;16272;48.188;9.964;2023-04-21T08:35:01;95318.53;;;10.25;77.42
29247;BME280;16272;48.188;9.964;2023-04-21T08:37:27;95321.44;;;10.40;77.53
29247;BME280;16272;48.188;9.964;2023-04-21T08:39:53;95322.97;;;11.16;75.00
29247;BME280;16272;48.188;9.964;2023-04-21T08:42:19;95315.50;;;11.36;77.12
29247;BME280;16272;48.188;9.964;2023-04-21T08:44:45;95325.31;;;11.03;77.58
29247;BME280;16272;48.188;9.964;2023-04-21T08:47:13;95319.00;;;10.71;76.52
29247;BME280;16272;48.188;9.964;2023-04-21T08:49:40;95322.63;;;10.70;73.04
29247;BME280;16272;48.188;9.964;2023-04-21T08:52:07;95311.38;;;10.76;73.76
29247;BME280;16272;48.188;9.964;2023-04-21T08:54:35;95318.84;;;10.73;75.67
29247;BME280;16272;48.188;9.964;2023-04-21T08:57:01;95311.25;;;11.75;74.55
29247;BME280;16272;48.188;9.964;2023-04-21T08:59:29;95301.75;;;11.89;72.39
29247;BME280;16272;48.188;9.964;2023-04-21T09:02:15;95290.22;;;11.40;71.79
29247;BME280;16272;48.188;9.964;2023-04-21T09:04:56;95289.53;;;12.11;69.65
29247;BME280;16272;48.188;9.964;2023-04-21T09:07:35;95286.97;;;12.26;71.32
29247;BME280;16272;48.188;9.964;2023-04-21T09:10:12;95280.03;;;12.48;69.96
29247;BME280;16272;48.188;9.964;2023-04-21T09:12:38;95290.84;;;13.54;67.73
29247;BME280;16272;48.188;9.964;2023-04-21T09:15:09;95299.13;;;13.59;65.15
29247;BME280;16272;48.188;9.964;2023-04-21T09:17:34;95303.28;;;13.23;62.72
29247;BME280;16272;48.188;9.964;2023-04-21T09:20:18;95297.19;;;13.30;65.51
29247;BME280;16272;48.188;9.964;2023-04-21T09:22:47;95305.47;;;12.19;68.09
29247;BME280;16272;48.188;9.964;2023-04-21T09:25:20;95297.59;;;11.86;71.25
29247;BME280;16272;48.188;9.964;2023-04-21T09:27:46;95298.72;;;12.40;72.10
29247;BME280;16272;48.188;9.964;2023-04-21T09:30:12;95301.00;;;12.11;67.19
29247;BME280;16272;48.188;9.964;2023-04-21T09:32:39;95303.28;;;12.54;66.99
29247;BME280;16272;48.188;9.964;2023-04-21T09:35:08;95286.78;;;13.43;64.71
29247;BME280;16272;48.188;9.964;2023-04-21T09:37:34;95279.78;;;14.53;64.43
29247;BME280;16272;48.188;9.964;2023-04-21T09:40:00;95286.81;;;14.39;61.66
29247;BME280;16272;48.188;9.964;2023-04-21T09:42:29;95290.38;;;13.12;65.01
29247;BME280;16272;48.188;9.964;2023-04-21T09:44:55;95282.38;;;13.65;64.44
29247;BME280;16272;48.188;9.964;2023-04-21T09:47:21;95281.88;;;14.21;61.68
29247;BME280;16272;48.188;9.964;2023-04-21T09:49:50;95281.66;;;13.71;62.18
29247;BME280;16272;48.188;9.964;2023-04-21T09:52:18;95285.50;;;13.98;63.41
29247;BME280;16272;48.188;9.964;2023-04-21T09:54:49;95285.88;;;14.83;57.53
29247;BME280;16272;48.188;9.964;2023-04-21T09:57:20;95282.44;;;14.31;62.11
29247;BME280;16272;48.188;9.964;2023-04-21T09:59:57;95291.53;;;14.37;65.71
29247;BME280;16272;48.188;9.964;2023-04-21T10:02:25;95280.19;;;15.65;62.81
29247;BME280;16272;48.188;9.964;2023-04-21T10:04:58;95282.31;;;14.98;61.72
29247;BME280;16272;48.188;9.964;2023-04-21T10:07:23;95272.38;;;15.98;57.12
29247;BME280;16272;48.188;9.964;2023-04-21T10:09:55;95271.47;;;15.28;59.94
29247;BME280;16272;48.188;9.964;2023-04-21T10:12:21;95277.09;;;16.44;58.95
29247;BME280;16272;48.188;9.964;2023-04-21T10:14:51;95265.69;;;16.22;53.40
29247;BME280;16272;48.188;9.964;2023-04-21T10:17:17;95255.19;;;17.16;57.09
29247;BME280;16272;48.188;9.964;2023-04-21T10:19:56;95258.63;;;16.83;56.34
29247;BME280;16272;48.188;9.964;2023-04-21T10:22:41;95275.66;;;15.37;65.86
29247;BME280;16272;48.188;9.964;2023-04-21T10:25:07;95266.41;;;16.03;64.04
29247;BME280;16272;48.188;9.964;2023-04-21T10:27:41;95258.09;;;16.39;60.54
29247;BME280;16272;48.188;9.964;2023-04-21T10:30:23;95252.09;;;17.32;59.98
29247;BME280;16272;48.188;9.964;2023-04-21T10:33:04;95239.94;;;18.28;53.92
29247;BME280;16272;48.188;9.964;2023-04-21T10:35:58;95254.88;;;16.57;62.75
29247;BME280;16272;48.188;9.964;2023-04-21T10:38:40;95254.53;;;15.77;59.94
29247;BME280;16272;48.188;9.964;2023-04-21T10:41:24;95250.41;;;16.16;60.85
29247;BME280;16272;48.188;9.964;2023-04-21T10:43:51;95246.56;;;16.39;63.13
29247;BME280;16272;48.188;9.964;2023-04-21T10:54:21;95241.88;;;15.99;63.80
29247;BME280;16272;48.188;9.964;2023-04-21T10:56:48;95246.66;;;16.04;59.25
29247;BME280;16272;48.188;9.964;2023-04-21T10:59:17;95239.09;;;17.02;57.83
29247;BME280;16272;48.188;9.964;2023-04-21T11:01:42;95236.81;;;17.39;53.71
29247;BME280;16272;48.188;9.964;2023-04-21T11:04:13;95247.53;;;17.26;52.27
29247;BME280;16272;48.188;9.964;2023-04-21T11:06:38;95239.66;;;16.84;53.04
29247;BME280;16272;48.188;9.964;2023-04-21T11:09:03;95232.06;;;17.35;56.28
29247;BME280;16272;48.188;9.964;2023-04-21T11:11:29;95229.28;;;17.81;53.58
29247;BME280;16272;48.188;9.964;2023-04-21T11:13:54;95233.84;;;16.61;55.51
29247;BME280;16272;48.188;9.964;2023-04-21T11:16:20;95236.38;;;16.82;54.97
29247;BME280;16272;48.188;9.964;2023-04-21T11:18:46;95229.72;;;17.78;56.28
29247;BME280;16272;48.188;9.964;2023-04-21T11:21:15;95229.59;;;16.86;56.58
29247;BME280;16272;48.188;9.964;2023-04-21T11:23:54;95230.81;;;16.09;60.84
29247;BME280;16272;48.188;9.964;2023-04-21T11:26:30;95238.06;;;15.45;60.07
29247;BME280;16272;48.188;9.964;2023-04-21T11:28:59;95232.78;;;15.58;61.12
29247;BME280;16272;48.188;9.964;2023-04-21T11:31:27;95225.19;;;16.72;61.56
29247;BME280;16272;48.188;9.964;2023-04-21T11:33:54;95218.00;;;16.72;56.19
29247;BME280;16272;48.188;9.964;2023-04-21T11:36:20;95217.16;;;17.52;60.79
29247;BME280;16272;48.188;9.964;2023-04-21T11:38:46;95214.41;;;17.99;54.12
29247;BME280;16272;48.188;9.964;2023-04-21T11:41:19;95214.09;;;16.95;58.26
29247;BME280;16272;48.188;9.964;2023-04-21T11:43:45;95214.94;;;17.29;54.26
29247;BME280;16272;48.188;9.964;2023-04-21T11:46:21;95209.56;;;17.16;58.20
29247;BME280;16272;48.188;9.964;2023-04-21T11:48:57;95206.41;;;18.31;53.37
29247;BME280;16272;48.188;9.964;2023-04-21T11:51:42;95210.06;;;17.85;52.41
29247;BME280;16272;48.188;9.964;2023-04-21T11:54:09;95211.59;;;17.47;58.52
29247;BME280;16272;48.188;9.964;2023-04-21T11:56:36;95216.59;;;17.03;55.96
29247;BME280;16272;48.188;9.964;2023-04-21T11:59:09;95210.13;;;18.30;54.60
29247;BME280;16272;48.188;9.964;2023-04-21T12:01:48;95209.97;;;16.79;60.36
29247;BME280;16272;48.188;9.964;2023-04-21T12:06:44;95195.19;;;17.89;55.69
29247;BME280;16272;48.188;9.964;2023-04-21T12:09:16;95193.75;;;18.38;55.24
29247;BME280;16272;48.188;9.964;2023-04-21T12:11:42;95194.09;;;18.10;53.20
29247;BME280;16272;48.188;9.964;2023-04-21T12:14:07;95197.38;;;18.18;51.90
29247;BME280;16272;48.188;9.964;2023-04-21T12:16:36;95192.00;;;18.18;55.71
29247;BME280;16272;48.188;9.964;2023-04-21T12:19:01;95180.50;;;19.69;51.01
29247;BME280;16272;48.188;9.964;2023-04-21T12:21:27;95198.03;;;17.22;56.27
29247;BME280;16272;48.188;9.964;2023-04-21T12:23:53;95197.38;;;18.18;52.35
29247;BME280;16272;48.188;9.964;2023-04-21T12:26:24;95185.63;;;18.83;55.74
29247;BME280;16272;48.188;9.964;2023-04-21T12:28:50;95196.50;;;18.25;55.63
29247;BME280;16272;48.188;9.964;2023-04-21T12:31:17;95186.72;;;18.69;52.53
29247;BME280;16272;48.188;9.964;2023-04-21T12:33:42;95186.72;;;19.70;49.43
29247;BME280;16272;48.188;9.964;2023-04-21T12:36:07;95182.53;;;19.55;49.82
29247;BME280;16272;48.188;9.964;2023-04-21T12:38:33;95175.72;;;19.71;50.90
29247;BME280;16272;48.188;9.964;2023-04-21T12:40:58;95177.41;;;18.71;49.76
29247;BME280;16272;48.188;9.964;2023-04-21T12:43:24;95185.06;;;18.36;54.27
29247;BME280;16272;48.188;9.964;2023-04-21T12:45:50;95180.53;;;17.91;56.27
29247;BME280;16272;48.188;9.964;2023-04-21T12:48:17;95180.16;;;17.74;57.35
29247;BME280;16272;48.188;9.964;2023-04-21T12:50:45;95175.16;;;17.85;54.17
29247;BME280;16272;48.188;9.964;2023-04-21T12:53:11;95184.09;;;17.65;57.83
29247;BME280;16272;48.188;9.964;2023-04-21T12:55:36;95182.03;;;18.26;54.26
29247;BME280;16272;48.188;9.964;2023-04-21T12:58:15;95173.53;;;18.61;54.25
29247;BME280;16272;48.188;9.964;2023-04-21T13:00:41;95167.97;;;18.94;49.57
29247;BME280;16272;48.188;9.964;2023-04-21T13:03:06;95167.16;;;19.99;50.65
29247;BME280;16272;48.188;9.964;2023-04-21T13:05:32;95161.44;;;20.08;49.68
29247;BME280;16272;48.188;9.964;2023-04-21T13:07:57;95167.94;;;20.18;47.98
29247;BME280;16272;48.188;9.964;2023-04-21T13:10:22;95161.13;;;19.42;52.10
29247;BME280;16272;48.188;9.964;2023-04-21T13:12:49;95164.91;;;17.61;53.11
29247;BME280;16272;48.188;9.964;2023-04-21T13:15:14;95159.84;;;18.69;52.25
29247;BME280;16272;48.188;9.964;2023-04-21T13:17:40;95161.88;;;19.49;51.40
29247;BME280;16272;48.188;9.964;2023-04-21T13:20:05;95156.50;;;20.05;48.80
29247;BME280;16272;48.188;9.964;2023-04-21T13:22:31;95162.50;;;19.70;49.22
29247;BME280;16272;48.188;9.964;2023-04-21T13:24:56;95161.31;;;18.65;54.37
29247;BME280;16272;48.188;9.964;2023-04-21T13:27:22;95154.78;;;18.54;54.23
29247;BME280;16272;48.188;9.964;2023-04-21T13:29:47;95151.06;;;19.12;52.49
29247;BME280;16272;48.188;9.964;2023-04-21T13:32:13;95158.72;;;19.52;46.62
29247;BME280;16272;48.188;9.964;2023-04-21T13:34:38;95151.81;;;19.38;49.44
29247;BME280;16272;48.188;9.964;2023-04-21T13:37:04;95160.41;;;19.90;47.05
29247;BME280;16272;48.188;9.964;2023-04-21T13:39:31;95144.78;;;20.29;47.38